Skip Navigation Links
NOAA logo - Click to go to the NOAA homepage
NOAA's National Weather Service
Alaska Aviation Weather Unit
  NWS logo - Click to go to the NWS homepage
Left Navbar Graphic     23 AKDT = 07 GMT

   
NOAA is celebrating 200 years of science, service, and stewardship. Visit the NOAA 200th celebration Web site to learn more.
USA.gov is the U.S. Government's official Web portal to all Federal, state and local government Web resources and services.
Facebook
NWS on Facebook

AAWU Home :: Display TAF Add Bookmark
METAR PASH 240116Z AUTO 02009KT 10SM CLR M01/M06 A2987 RMK AO1 PNO=

METAR PASH 240136Z AUTO 02010KT 10SM CLR M01/M06 A2987 RMK AO1 PNO=

METAR PASH 240156Z AUTO 02009KT 10SM CLR M01/M06 A2986 RMK AO1 PNO=

METAR PASH 240216Z AUTO 01007KT 10SM CLR 00/M05 A2986 RMK AO1 PNO=

METAR PASH 240236Z AUTO 01008KT 10SM CLR 00/M06 A2986 RMK AO1 PNO=

METAR PASH 240256Z AUTO 01007KT 10SM CLR M01/M06 A2986 RMK AO1 57010
     PNO=

METAR PASH 240316Z AUTO 01008KT 10SM CLR M01/M06 A2985 RMK AO1 PNO=

METAR PASH 240336Z AUTO 01008KT 10SM CLR M02/M06 A2985 RMK AO1 PNO=

METAR PASH 240356Z AUTO 01008KT 10SM CLR M02/M07 A2985 RMK AO1 PNO=

METAR PASH 240416Z AUTO 01007KT 10SM CLR M03/M07 A2984 RMK AO1 PNO=

METAR PASH 240436Z AUTO 01007KT 10SM CLR M03/M07 A2984 RMK AO1 PNO=

METAR PASH 240456Z AUTO 01007KT 10SM CLR M03/M07 A2984 RMK AO1 PNO=

METAR PASH 240516Z AUTO 36007KT 10SM CLR M04/M07 A2983 RMK AO1 PNO=

METAR PASH 240536Z AUTO 36008KT 10SM CLR M04/M08 A2983 RMK AO1 PNO=

METAR PASH 240556Z AUTO 36008KT 10SM CLR M04/M08 A2982 RMK AO1 10000
 21040 57014 PNO=

METAR PASH 240616Z AUTO 36008KT 10SM CLR M05/M08 A2982 RMK AO1 PNO=

METAR PASH 240636Z AUTO 36007KT 10SM CLR M05/M08 A2982 RMK AO1 PNO=

METAR PASH 240656Z AUTO 36009KT 10SM CLR M05/M08 A2982 RMK AO1 PNO=


NOAA's National Weather Service
Alaska Aviation Weather Unit
6930 Sand Lake Road
Anchorage, AK 99502-1845
Disclaimer
Credits
Glossary
Privacy Policy
About Us
Career Opportunities
Contact AAWU Internet Services Site last modified: April, 17th 2012